createdAt,value
2018-06-28T00:00:03.689Z,5.83
2018-06-28T00:02:32.424Z,4.97
2018-06-28T00:05:01.358Z,6.47
2018-06-28T00:07:30.325Z,5.93
2018-06-28T00:09:59.451Z,5.33
2018-06-28T00:12:28.492Z,7.10
2018-06-28T00:14:57.460Z,4.83
2018-06-28T00:17:26.528Z,6.13
2018-06-28T00:19:55.606Z,5.13
2018-06-28T00:22:24.643Z,5.67
2018-06-28T00:24:53.497Z,5.13
2018-06-28T00:27:22.638Z,5.97
2018-06-28T00:29:51.504Z,4.17
2018-06-28T00:32:20.669Z,5.50
2018-06-28T00:34:49.613Z,3.90
2018-06-28T00:37:18.581Z,4.00
2018-06-28T00:39:47.554Z,6.03
2018-06-28T00:42:16.776Z,4.33
2018-06-28T00:44:45.852Z,4.50
2018-06-28T00:47:14.926Z,4.00
2018-06-28T00:49:43.962Z,6.30
2018-06-28T00:52:13.171Z,4.60
2018-06-28T00:54:42.241Z,3.93
2018-06-28T00:57:11.192Z,4.27
2018-06-28T00:59:40.153Z,4.13
2018-06-28T01:02:09.095Z,4.10
2018-06-28T01:04:38.136Z,4.57
2018-06-28T01:07:07.328Z,4.20
2018-06-28T01:09:36.279Z,4.07
2018-06-28T01:12:05.170Z,5.10
2018-06-28T01:14:34.240Z,4.73
2018-06-28T01:17:03.616Z,3.90
2018-06-28T01:22:19.611Z,4.20
2018-06-28T01:24:48.705Z,3.93
2018-06-28T01:27:17.455Z,4.00
2018-06-28T01:29:46.500Z,4.80
2018-06-28T01:32:15.251Z,3.93
2018-06-28T01:34:44.293Z,4.20
2018-06-28T01:37:13.140Z,3.40
2018-06-28T01:39:41.851Z,3.30
2018-06-28T01:42:21.699Z,3.83
2018-06-28T01:44:50.768Z,3.40
2018-06-28T01:47:19.610Z,3.67
2018-06-28T01:49:48.378Z,3.10
2018-06-28T01:52:17.103Z,3.67
2018-06-28T01:54:46.097Z,4.23
2018-06-28T01:57:15.023Z,4.47
2018-06-28T01:59:44.155Z,4.23
2018-06-28T02:02:12.522Z,4.07
2018-06-28T02:04:41.529Z,3.10
2018-06-28T02:07:10.760Z,2.60
2018-06-28T02:09:39.623Z,3.00
2018-06-28T02:12:08.681Z,2.70
2018-06-28T02:14:38.221Z,3.07
2018-06-28T02:17:07.289Z,2.70
2018-06-28T02:19:36.434Z,3.10
2018-06-28T02:22:05.407Z,2.90
2018-06-28T02:24:34.344Z,2.80
2018-06-28T02:27:03.401Z,2.63
2018-06-28T02:29:32.486Z,3.17
2018-06-28T02:32:01.594Z,2.47
2018-06-28T02:34:30.649Z,3.03
2018-06-28T02:36:59.154Z,2.60
2018-06-28T02:39:29.076Z,2.90
2018-06-28T02:41:58.182Z,2.50
2018-06-28T02:44:27.217Z,2.60
2018-06-28T02:46:56.130Z,2.73
2018-06-28T02:49:25.025Z,2.20
2018-06-28T02:51:53.962Z,2.67
2018-06-28T02:54:23.050Z,1.77
2018-06-28T02:56:52.123Z,2.43
2018-06-28T02:59:21.157Z,2.73
2018-06-28T03:01:50.328Z,2.33
2018-06-28T03:04:24.926Z,3.27
2018-06-28T03:06:53.824Z,2.53
2018-06-28T03:09:23.075Z,2.27
2018-06-28T03:11:52.127Z,2.20
2018-06-28T03:14:21.426Z,4.83
2018-06-28T03:16:50.467Z,2.20
2018-06-28T03:19:19.611Z,2.67
2018-06-28T03:21:49.040Z,2.97
2018-06-28T03:24:18.304Z,2.30
2018-06-28T03:26:47.303Z,2.50
2018-06-28T03:29:21.008Z,2.80
2018-06-28T03:31:50.030Z,2.47
2018-06-28T03:34:18.961Z,2.40
2018-06-28T03:36:47.970Z,2.37
2018-06-28T03:39:16.882Z,2.47
2018-06-28T03:41:45.803Z,2.40
2018-06-28T03:44:14.841Z,2.10
2018-06-28T03:46:43.793Z,2.90
2018-06-28T03:49:13.199Z,2.57
2018-06-28T03:51:41.919Z,2.50
2018-06-28T03:54:10.993Z,2.80
2018-06-28T03:56:40.000Z,2.57
2018-06-28T03:59:08.946Z,2.70
2018-06-28T04:01:37.727Z,2.30
